sensor_id;sensor_type;location;lat;lon;timestamp;temperature;humidity
44111;DHT22;29774;52.664;5.074;2024-01-27T00:01:33;4.50;82.50
44111;DHT22;29774;52.664;5.074;2024-01-27T00:03:59;4.50;82.60
44111;DHT22;29774;52.664;5.074;2024-01-27T00:06:24;4.60;82.50
44111;DHT22;29774;52.664;5.074;2024-01-27T00:08:50;4.60;82.40
44111;DHT22;29774;52.664;5.074;2024-01-27T00:11:16;4.70;82.30
44111;DHT22;29774;52.664;5.074;2024-01-27T00:13:41;4.70;82.00
44111;DHT22;29774;52.664;5.074;2024-01-27T00:16:08;4.70;81.80
44111;DHT22;29774;52.664;5.074;2024-01-27T00:18:36;4.60;81.60
44111;DHT22;29774;52.664;5.074;2024-01-27T00:21:02;4.50;81.60
44111;DHT22;29774;52.664;5.074;2024-01-27T00:23:28;4.50;81.70
44111;DHT22;29774;52.664;5.074;2024-01-27T00:25:53;4.60;81.70
44111;DHT22;29774;52.664;5.074;2024-01-27T00:28:19;4.50;81.60
44111;DHT22;29774;52.664;5.074;2024-01-27T00:30:44;4.50;81.70
44111;DHT22;29774;52.664;5.074;2024-01-27T00:33:10;4.50;81.60
44111;DHT22;29774;52.664;5.074;2024-01-27T00:35:36;4.50;81.60
44111;DHT22;29774;52.664;5.074;2024-01-27T00:38:01;4.40;81.50
44111;DHT22;29774;52.664;5.074;2024-01-27T00:40:28;4.40;81.50
44111;DHT22;29774;52.664;5.074;2024-01-27T00:42:54;4.40;81.40
44111;DHT22;29774;52.664;5.074;2024-01-27T00:45:20;4.30;81.50
44111;DHT22;29774;52.664;5.074;2024-01-27T00:47:51;4.30;81.50
44111;DHT22;29774;52.664;5.074;2024-01-27T00:50:16;4.30;81.60
44111;DHT22;29774;52.664;5.074;2024-01-27T00:52:42;4.20;81.70
44111;DHT22;29774;52.664;5.074;2024-01-27T00:55:08;4.20;81.80
44111;DHT22;29774;52.664;5.074;2024-01-27T00:57:36;4.20;81.70
44111;DHT22;29774;52.664;5.074;2024-01-27T01:00:06;4.20;81.70
44111;DHT22;29774;52.664;5.074;2024-01-27T01:02:33;4.10;81.60
44111;DHT22;29774;52.664;5.074;2024-01-27T01:04:58;4.20;81.70
44111;DHT22;29774;52.664;5.074;2024-01-27T01:07:24;4.10;81.50
44111;DHT22;29774;52.664;5.074;2024-01-27T01:09:50;4.20;81.70
44111;DHT22;29774;52.664;5.074;2024-01-27T01:12:16;4.20;81.80
44111;DHT22;29774;52.664;5.074;2024-01-27T01:14:43;4.20;82.00
44111;DHT22;29774;52.664;5.074;2024-01-27T01:17:08;4.20;82.10
44111;DHT22;29774;52.664;5.074;2024-01-27T01:19:34;4.20;82.10
44111;DHT22;29774;52.664;5.074;2024-01-27T01:21:59;4.20;82.10
44111;DHT22;29774;52.664;5.074;2024-01-27T01:24:25;4.10;82.10
44111;DHT22;29774;52.664;5.074;2024-01-27T01:26:51;4.00;82.30
44111;DHT22;29774;52.664;5.074;2024-01-27T01:29:16;3.90;82.20
44111;DHT22;29774;52.664;5.074;2024-01-27T01:31:45;3.90;82.10
44111;DHT22;29774;52.664;5.074;2024-01-27T01:34:11;3.90;82.10
44111;DHT22;29774;52.664;5.074;2024-01-27T01:36:37;4.00;82.20
44111;DHT22;29774;52.664;5.074;2024-01-27T01:39:03;4.10;82.10
44111;DHT22;29774;52.664;5.074;2024-01-27T01:41:29;4.10;82.20
44111;DHT22;29774;52.664;5.074;2024-01-27T01:43:54;4.10;82.20
44111;DHT22;29774;52.664;5.074;2024-01-27T01:46:21;4.00;82.10
44111;DHT22;29774;52.664;5.074;2024-01-27T01:48:49;3.90;82.30
44111;DHT22;29774;52.664;5.074;2024-01-27T01:51:16;3.90;82.30
44111;DHT22;29774;52.664;5.074;2024-01-27T01:53:42;3.80;82.40
44111;DHT22;29774;52.664;5.074;2024-01-27T01:56:09;3.80;82.40
44111;DHT22;29774;52.664;5.074;2024-01-27T01:58:34;3.80;82.40
44111;DHT22;29774;52.664;5.074;2024-01-27T02:01:00;3.80;82.50
44111;DHT22;29774;52.664;5.074;2024-01-27T02:03:27;3.90;82.50
44111;DHT22;29774;52.664;5.074;2024-01-27T02:05:52;3.90;82.50
44111;DHT22;29774;52.664;5.074;2024-01-27T02:08:18;4.00;82.80
44111;DHT22;29774;52.664;5.074;2024-01-27T02:10:43;4.00;82.70
44111;DHT22;29774;52.664;5.074;2024-01-27T02:13:23;3.90;82.60
44111;DHT22;29774;52.664;5.074;2024-01-27T02:15:49;3.90;82.70
44111;DHT22;29774;52.664;5.074;2024-01-27T02:18:16;3.90;82.70
44111;DHT22;29774;52.664;5.074;2024-01-27T02:20:42;3.90;82.70
44111;DHT22;29774;52.664;5.074;2024-01-27T02:23:08;3.90;82.80
44111;DHT22;29774;52.664;5.074;2024-01-27T02:25:34;3.90;82.80
44111;DHT22;29774;52.664;5.074;2024-01-27T02:28:01;3.90;82.80
44111;DHT22;29774;52.664;5.074;2024-01-27T02:30:30;3.80;82.80
44111;DHT22;29774;52.664;5.074;2024-01-27T02:32:56;3.80;82.70
44111;DHT22;29774;52.664;5.074;2024-01-27T02:35:23;3.80;82.70
44111;DHT22;29774;52.664;5.074;2024-01-27T02:37:48;3.90;82.70
44111;DHT22;29774;52.664;5.074;2024-01-27T02:40:14;3.90;82.50
44111;DHT22;29774;52.664;5.074;2024-01-27T02:42:40;3.90;82.50
44111;DHT22;29774;52.664;5.074;2024-01-27T02:45:10;4.00;82.50
44111;DHT22;29774;52.664;5.074;2024-01-27T02:47:36;4.00;82.60
44111;DHT22;29774;52.664;5.074;2024-01-27T02:50:02;4.10;82.70
44111;DHT22;29774;52.664;5.074;2024-01-27T02:52:28;4.10;82.60
44111;DHT22;29774;52.664;5.074;2024-01-27T02:54:55;4.00;82.60
44111;DHT22;29774;52.664;5.074;2024-01-27T02:57:20;4.00;82.70
44111;DHT22;29774;52.664;5.074;2024-01-27T02:59:46;4.00;82.70
44111;DHT22;29774;52.664;5.074;2024-01-27T03:02:12;4.00;82.60
44111;DHT22;29774;52.664;5.074;2024-01-27T03:04:38;4.10;82.60
44111;DHT22;29774;52.664;5.074;2024-01-27T03:07:03;4.10;82.40
44111;DHT22;29774;52.664;5.074;2024-01-27T03:09:30;4.10;82.40
44111;DHT22;29774;52.664;5.074;2024-01-27T03:11:56;4.10;82.40
44111;DHT22;29774;52.664;5.074;2024-01-27T03:14:22;4.10;82.40
44111;DHT22;29774;52.664;5.074;2024-01-27T03:16:48;4.10;82.40
44111;DHT22;29774;52.664;5.074;2024-01-27T03:19:13;4.00;82.40
44111;DHT22;29774;52.664;5.074;2024-01-27T03:21:39;3.90;82.40
44111;DHT22;29774;52.664;5.074;2024-01-27T03:24:05;3.80;82.50
44111;DHT22;29774;52.664;5.074;2024-01-27T03:26:30;3.80;82.50
44111;DHT22;29774;52.664;5.074;2024-01-27T03:28:56;3.80;82.60
44111;DHT22;29774;52.664;5.074;2024-01-27T03:31:21;3.80;82.50
44111;DHT22;29774;52.664;5.074;2024-01-27T03:33:47;3.70;82.50
44111;DHT22;29774;52.664;5.074;2024-01-27T03:36:13;3.70;82.40
44111;DHT22;29774;52.664;5.074;2024-01-27T03:38:42;3.70;82.60
44111;DHT22;29774;52.664;5.074;2024-01-27T03:41:08;3.70;82.70
44111;DHT22;29774;52.664;5.074;2024-01-27T03:43:34;3.60;82.50
44111;DHT22;29774;52.664;5.074;2024-01-27T03:46:00;3.70;82.60
44111;DHT22;29774;52.664;5.074;2024-01-27T03:48:25;3.70;82.50
44111;DHT22;29774;52.664;5.074;2024-01-27T03:50:51;3.80;82.50
44111;DHT22;29774;52.664;5.074;2024-01-27T03:53:17;3.80;82.60
44111;DHT22;29774;52.664;5.074;2024-01-27T03:55:43;3.90;82.80
44111;DHT22;29774;52.664;5.074;2024-01-27T03:58:08;4.00;82.90
44111;DHT22;29774;52.664;5.074;2024-01-27T04:00:34;3.90;82.90
44111;DHT22;29774;52.664;5.074;2024-01-27T04:03:00;3.80;83.00
44111;DHT22;29774;52.664;5.074;2024-01-27T04:05:28;3.90;83.10
44111;DHT22;29774;52.664;5.074;2024-01-27T04:07:54;4.20;83.30
44111;DHT22;29774;52.664;5.074;2024-01-27T04:10:20;4.40;83.30
44111;DHT22;29774;52.664;5.074;2024-01-27T04:12:46;4.50;83.30
44111;DHT22;29774;52.664;5.074;2024-01-27T04:15:12;4.70;83.30
44111;DHT22;29774;52.664;5.074;2024-01-27T04:17:38;4.90;83.30
44111;DHT22;29774;52.664;5.074;2024-01-27T04:20:04;4.80;83.00
44111;DHT22;29774;52.664;5.074;2024-01-27T04:22:30;4.80;82.90
44111;DHT22;29774;52.664;5.074;2024-01-27T04:24:56;4.80;83.00
44111;DHT22;29774;52.664;5.074;2024-01-27T04:27:21;4.80;83.00
44111;DHT22;29774;52.664;5.074;2024-01-27T04:29:47;4.80;83.10
44111;DHT22;29774;52.664;5.074;2024-01-27T04:32:13;4.80;83.10
44111;DHT22;29774;52.664;5.074;2024-01-27T04:34:39;4.90;83.00
44111;DHT22;29774;52.664;5.074;2024-01-27T04:37:05;4.90;83.00
44111;DHT22;29774;52.664;5.074;2024-01-27T04:39:30;5.20;83.10
44111;DHT22;29774;52.664;5.074;2024-01-27T04:41:56;5.40;83.00
44111;DHT22;29774;52.664;5.074;2024-01-27T04:44:22;5.30;82.60
44111;DHT22;29774;52.664;5.074;2024-01-27T04:46:47;5.40;82.40
44111;DHT22;29774;52.664;5.074;2024-01-27T04:49:14;5.30;82.20
44111;DHT22;29774;52.664;5.074;2024-01-27T04:51:40;5.30;82.00
44111;DHT22;29774;52.664;5.074;2024-01-27T04:54:06;5.30;82.00
44111;DHT22;29774;52.664;5.074;2024-01-27T04:56:32;5.20;82.00
44111;DHT22;29774;52.664;5.074;2024-01-27T04:58:58;5.20;82.20
44111;DHT22;29774;52.664;5.074;2024-01-27T05:01:24;5.30;82.20
44111;DHT22;29774;52.664;5.074;2024-01-27T05:03:49;5.30;82.20
44111;DHT22;29774;52.664;5.074;2024-01-27T05:06:15;5.50;82.30
44111;DHT22;29774;52.664;5.074;2024-01-27T05:08:40;5.40;81.90
44111;DHT22;29774;52.664;5.074;2024-01-27T05:11:06;5.50;81.90
44111;DHT22;29774;52.664;5.074;2024-01-27T05:13:32;5.50;81.80
44111;DHT22;29774;52.664;5.074;2024-01-27T05:15:58;5.70;81.90
44111;DHT22;29774;52.664;5.074;2024-01-27T05:18:24;5.70;81.30
44111;DHT22;29774;52.664;5.074;2024-01-27T05:20:49;5.40;81.10
44111;DHT22;29774;52.664;5.074;2024-01-27T05:23:15;5.20;81.00
44111;DHT22;29774;52.664;5.074;2024-01-27T05:25:41;5.30;81.40
44111;DHT22;29774;52.664;5.074;2024-01-27T05:28:06;5.50;81.60
44111;DHT22;29774;52.664;5.074;2024-01-27T05:30:33;5.60;81.50
44111;DHT22;29774;52.664;5.074;2024-01-27T05:32:58;5.70;81.30
44111;DHT22;29774;52.664;5.074;2024-01-27T05:35:24;5.70;81.30
44111;DHT22;29774;52.664;5.074;2024-01-27T05:37:49;5.60;81.20
44111;DHT22;29774;52.664;5.074;2024-01-27T05:40:16;5.50;81.10
44111;DHT22;29774;52.664;5.074;2024-01-27T05:42:42;5.60;81.30
44111;DHT22;29774;52.664;5.074;2024-01-27T05:45:10;5.80;81.40
44111;DHT22;29774;52.664;5.074;2024-01-27T05:47:36;5.60;81.00
44111;DHT22;29774;52.664;5.074;2024-01-27T05:50:02;5.40;81.10
44111;DHT22;29774;52.664;5.074;2024-01-27T05:52:28;5.50;81.30
44111;DHT22;29774;52.664;5.074;2024-01-27T05:54:54;5.50;81.30
44111;DHT22;29774;52.664;5.074;2024-01-27T05:57:20;5.20;81.30
44111;DHT22;29774;52.664;5.074;2024-01-27T05:59:47;5.20;81.70
44111;DHT22;29774;52.664;5.074;2024-01-27T06:02:12;5.20;81.80
44111;DHT22;29774;52.664;5.074;2024-01-27T06:04:38;5.20;81.90
44111;DHT22;29774;52.664;5.074;2024-01-27T06:07:04;5.10;82.00
44111;DHT22;29774;52.664;5.074;2024-01-27T06:09:30;5.10;82.10
44111;DHT22;29774;52.664;5.074;2024-01-27T06:11:59;5.30;82.30
44111;DHT22;29774;52.664;5.074;2024-01-27T06:14:25;5.50;82.30
44111;DHT22;29774;52.664;5.074;2024-01-27T06:16:51;5.70;82.30
44111;DHT22;29774;52.664;5.074;2024-01-27T06:19:16;5.70;82.10
44111;DHT22;29774;52.664;5.074;2024-01-27T06:21:42;5.50;81.80
44111;DHT22;29774;52.664;5.074;2024-01-27T06:24:07;5.50;82.00
44111;DHT22;29774;52.664;5.074;2024-01-27T06:26:33;5.70;82.10
44111;DHT22;29774;52.664;5.074;2024-01-27T06:28:59;5.70;82.10
44111;DHT22;29774;52.664;5.074;2024-01-27T06:31:25;5.60;82.00
44111;DHT22;29774;52.664;5.074;2024-01-27T06:33:51;5.70;82.10
44111;DHT22;29774;52.664;5.074;2024-01-27T06:36:16;5.90;82.00
44111;DHT22;29774;52.664;5.074;2024-01-27T06:38:42;6.00;81.90
44111;DHT22;29774;52.664;5.074;2024-01-27T06:41:08;5.90;81.80
44111;DHT22;29774;52.664;5.074;2024-01-27T06:43:33;6.10;82.00
44111;DHT22;29774;52.664;5.074;2024-01-27T06:45:59;6.20;81.90
44111;DHT22;29774;52.664;5.074;2024-01-27T06:48:24;6.50;82.10
44111;DHT22;29774;52.664;5.074;2024-01-27T06:50:53;6.60;82.00
44111;DHT22;29774;52.664;5.074;2024-01-27T06:53:19;6.50;81.40
44111;DHT22;29774;52.664;5.074;2024-01-27T06:55:45;6.30;81.00
44111;DHT22;29774;52.664;5.074;2024-01-27T06:58:11;6.20;80.90
44111;DHT22;29774;52.664;5.074;2024-01-27T07:00:37;6.20;81.30
44111;DHT22;29774;52.664;5.074;2024-01-27T07:03:03;6.20;81.20
44111;DHT22;29774;52.664;5.074;2024-01-27T07:05:29;6.20;81.10
44111;DHT22;29774;52.664;5.074;2024-01-27T07:07:55;6.40;81.50
44111;DHT22;29774;52.664;5.074;2024-01-27T07:10:20;6.30;81.10
44111;DHT22;29774;52.664;5.074;2024-01-27T07:12:46;6.30;81.20
44111;DHT22;29774;52.664;5.074;2024-01-27T07:15:12;6.20;81.20
44111;DHT22;29774;52.664;5.074;2024-01-27T07:17:37;6.20;81.10
44111;DHT22;29774;52.664;5.074;2024-01-27T07:20:03;6.40;81.30
44111;DHT22;29774;52.664;5.074;2024-01-27T07:22:29;6.40;81.20
44111;DHT22;29774;52.664;5.074;2024-01-27T07:24:54;6.50;81.10
44111;DHT22;29774;52.664;5.074;2024-01-27T07:27:22;6.80;81.60
44111;DHT22;29774;52.664;5.074;2024-01-27T07:29:48;7.10;82.10
44111;DHT22;29774;52.664;5.074;2024-01-27T07:32:14;7.10;81.60
44111;DHT22;29774;52.664;5.074;2024-01-27T07:34:43;7.20;80.80
44111;DHT22;29774;52.664;5.074;2024-01-27T07:37:09;7.20;80.60
44111;DHT22;29774;52.664;5.074;2024-01-27T07:39:35;7.00;80.20
44111;DHT22;29774;52.664;5.074;2024-01-27T07:42:00;6.90;80.00
44111;DHT22;29774;52.664;5.074;2024-01-27T07:44:26;6.80;80.20
44111;DHT22;29774;52.664;5.074;2024-01-27T07:46:52;6.80;80.20
44111;DHT22;29774;52.664;5.074;2024-01-27T07:49:18;6.90;80.50
44111;DHT22;29774;52.664;5.074;2024-01-27T07:51:44;7.00;80.90
44111;DHT22;29774;52.664;5.074;2024-01-27T07:54:09;7.00;80.60
44111;DHT22;29774;52.664;5.074;2024-01-27T07:56:35;6.80;80.20
44111;DHT22;29774;52.664;5.074;2024-01-27T07:59:01;6.80;80.40
44111;DHT22;29774;52.664;5.074;2024-01-27T08:01:27;6.80;80.50
44111;DHT22;29774;52.664;5.074;2024-01-27T08:03:52;6.70;80.30
44111;DHT22;29774;52.664;5.074;2024-01-27T08:06:28;7.00;81.40
44111;DHT22;29774;52.664;5.074;2024-01-27T08:08:54;6.90;80.70
44111;DHT22;29774;52.664;5.074;2024-01-27T08:11:20;6.80;80.60
44111;DHT22;29774;52.664;5.074;2024-01-27T08:13:45;6.80;80.80
44111;DHT22;29774;52.664;5.074;2024-01-27T08:16:11;6.70;81.00
44111;DHT22;29774;52.664;5.074;2024-01-27T08:18:41;6.90;81.30
44111;DHT22;29774;52.664;5.074;2024-01-27T08:21:09;7.00;81.40
44111;DHT22;29774;52.664;5.074;2024-01-27T08:23:35;7.00;81.30
44111;DHT22;29774;52.664;5.074;2024-01-27T08:26:01;7.20;81.60
44111;DHT22;29774;52.664;5.074;2024-01-27T08:28:27;7.20;81.40
44111;DHT22;29774;52.664;5.074;2024-01-27T08:30:52;7.30;81.50
44111;DHT22;29774;52.664;5.074;2024-01-27T08:33:18;7.40;81.20
44111;DHT22;29774;52.664;5.074;2024-01-27T08:35:46;7.40;80.80
44111;DHT22;29774;52.664;5.074;2024-01-27T08:38:13;7.50;80.90
44111;DHT22;29774;52.664;5.074;2024-01-27T08:40:39;7.40;80.60
44111;DHT22;29774;52.664;5.074;2024-01-27T08:43:04;7.50;80.80
44111;DHT22;29774;52.664;5.074;2024-01-27T08:45:31;7.70;80.80
44111;DHT22;29774;52.664;5.074;2024-01-27T08:47:57;7.80;80.30
44111;DHT22;29774;52.664;5.074;2024-01-27T08:50:23;7.70;80.00
44111;DHT22;29774;52.664;5.074;2024-01-27T08:52:49;7.80;80.20
44111;DHT22;29774;52.664;5.074;2024-01-27T08:55:15;8.10;80.30
44111;DHT22;29774;52.664;5.074;2024-01-27T08:57:45;7.90;79.30
44111;DHT22;29774;52.664;5.074;2024-01-27T09:00:12;7.70;79.40
44111;DHT22;29774;52.664;5.074;2024-01-27T09:02:38;7.90;79.70
44111;DHT22;29774;52.664;5.074;2024-01-27T09:05:04;7.70;79.10
44111;DHT22;29774;52.664;5.074;2024-01-27T09:07:30;7.70;79.20
44111;DHT22;29774;52.664;5.074;2024-01-27T09:09:56;7.40;79.10
44111;DHT22;29774;52.664;5.074;2024-01-27T09:12:22;7.50;79.70
44111;DHT22;29774;52.664;5.074;2024-01-27T09:14:48;7.70;80.20
44111;DHT22;29774;52.664;5.074;2024-01-27T09:17:13;7.80;80.40
44111;DHT22;29774;52.664;5.074;2024-01-27T09:19:39;8.00;80.50
44111;DHT22;29774;52.664;5.074;2024-01-27T09:22:05;8.00;80.50
44111;DHT22;29774;52.664;5.074;2024-01-27T09:24:30;8.10;80.50
44111;DHT22;29774;52.664;5.074;2024-01-27T09:26:56;8.10;80.60
44111;DHT22;29774;52.664;5.074;2024-01-27T09:29:21;8.10;80.80
44111;DHT22;29774;52.664;5.074;2024-01-27T09:31:47;8.20;80.90
44111;DHT22;29774;52.664;5.074;2024-01-27T09:34:13;8.30;80.80
44111;DHT22;29774;52.664;5.074;2024-01-27T09:36:39;8.20;81.20
44111;DHT22;29774;52.664;5.074;2024-01-27T09:39:05;8.20;81.50
44111;DHT22;29774;52.664;5.074;2024-01-27T09:41:31;8.20;81.90
44111;DHT22;29774;52.664;5.074;2024-01-27T09:44:01;8.20;82.20
44111;DHT22;29774;52.664;5.074;2024-01-27T09:46:29;8.20;82.80
44111;DHT22;29774;52.664;5.074;2024-01-27T09:48:55;8.30;83.00
44111;DHT22;29774;52.664;5.074;2024-01-27T09:51:21;8.30;83.20
44111;DHT22;29774;52.664;5.074;2024-01-27T09:53:48;8.40;83.30
44111;DHT22;29774;52.664;5.074;2024-01-27T09:56:16;8.50;83.10
44111;DHT22;29774;52.664;5.074;2024-01-27T09:58:44;8.60;82.90
44111;DHT22;29774;52.664;5.074;2024-01-27T10:01:10;8.60;83.00
44111;DHT22;29774;52.664;5.074;2024-01-27T10:03:40;8.70;82.50
44111;DHT22;29774;52.664;5.074;2024-01-27T10:06:09;8.90;81.60
44111;DHT22;29774;52.664;5.074;2024-01-27T10:08:35;9.00;81.40
44111;DHT22;29774;52.664;5.074;2024-01-27T10:11:08;9.10;81.80
44111;DHT22;29774;52.664;5.074;2024-01-27T10:13:34;9.10;82.00
44111;DHT22;29774;52.664;5.074;2024-01-27T10:18:30;9.20;81.80
44111;DHT22;29774;52.664;5.074;2024-01-27T10:20:56;9.20;81.70
44111;DHT22;29774;52.664;5.074;2024-01-27T10:23:22;9.20;81.70
44111;DHT22;29774;52.664;5.074;2024-01-27T10:25:48;9.20;81.90
44111;DHT22;29774;52.664;5.074;2024-01-27T10:28:14;9.30;81.90
44111;DHT22;29774;52.664;5.074;2024-01-27T10:30:40;9.40;82.00
44111;DHT22;29774;52.664;5.074;2024-01-27T10:33:08;9.40;81.90
44111;DHT22;29774;52.664;5.074;2024-01-27T10:35:35;9.50;82.10
44111;DHT22;29774;52.664;5.074;2024-01-27T10:38:01;9.50;82.10
44111;DHT22;29774;52.664;5.074;2024-01-27T10:40:27;9.60;81.90
44111;DHT22;29774;52.664;5.074;2024-01-27T10:43:01;9.60;81.90
44111;DHT22;29774;52.664;5.074;2024-01-27T10:45:33;9.70;80.60
44111;DHT22;29774;52.664;5.074;2024-01-27T10:48:00;9.70;80.40
44111;DHT22;29774;52.664;5.074;2024-01-27T10:50:27;9.70;78.80
44111;DHT22;29774;52.664;5.074;2024-01-27T10:52:54;9.90;78.70
44111;DHT22;29774;52.664;5.074;2024-01-27T10:55:22;10.00;79.40
44111;DHT22;29774;52.664;5.074;2024-01-27T10:57:49;10.00;79.00
44111;DHT22;29774;52.664;5.074;2024-01-27T11:00:16;10.10;78.60
44111;DHT22;29774;52.664;5.074;2024-01-27T11:02:44;10.20;79.60
44111;DHT22;29774;52.664;5.074;2024-01-27T11:05:10;10.20;79.70
44111;DHT22;29774;52.664;5.074;2024-01-27T11:07:38;10.20;77.60
44111;DHT22;29774;52.664;5.074;2024-01-27T11:10:05;10.20;77.80
44111;DHT22;29774;52.664;5.074;2024-01-27T11:12:31;10.20;77.60
44111;DHT22;29774;52.664;5.074;2024-01-27T11:14:57;10.10;76.70
44111;DHT22;29774;52.664;5.074;2024-01-27T11:17:26;10.10;76.20
44111;DHT22;29774;52.664;5.074;2024-01-27T11:19:53;10.10;76.30
44111;DHT22;29774;52.664;5.074;2024-01-27T11:22:28;10.10;76.20
44111;DHT22;29774;52.664;5.074;2024-01-27T11:25:14;10.10;75.60
44111;DHT22;29774;52.664;5.074;2024-01-27T11:27:43;10.00;76.70
44111;DHT22;29774;52.664;5.074;2024-01-27T11:30:31;10.00;77.00
44111;DHT22;29774;52.664;5.074;2024-01-27T11:33:01;10.00;77.40
44111;DHT22;29774;52.664;5.074;2024-01-27T11:35:27;10.10;77.20
44111;DHT22;29774;52.664;5.074;2024-01-27T11:37:54;10.10;77.50
44111;DHT22;29774;52.664;5.074;2024-01-27T11:40:20;10.20;77.10
44111;DHT22;29774;52.664;5.074;2024-01-27T11:43:00;10.20;78.30
44111;DHT22;29774;52.664;5.074;2024-01-27T11:45:27;10.30;77.80
44111;DHT22;29774;52.664;5.074;2024-01-27T11:47:55;10.40;78.50
44111;DHT22;29774;52.664;5.074;2024-01-27T11:50:21;10.30;77.90
44111;DHT22;29774;52.664;5.074;2024-01-27T11:52:47;10.30;76.90
44111;DHT22;29774;52.664;5.074;2024-01-27T11:55:13;10.30;77.10
44111;DHT22;29774;52.664;5.074;2024-01-27T11:57:41;10.30;77.10
44111;DHT22;29774;52.664;5.074;2024-01-27T12:00:08;10.40;77.00
44111;DHT22;29774;52.664;5.074;2024-01-27T12:02:38;10.40;77.00
44111;DHT22;29774;52.664;5.074;2024-01-27T12:05:05;10.50;77.50
44111;DHT22;29774;52.664;5.074;2024-01-27T12:07:31;10.40;76.60
44111;DHT22;29774;52.664;5.074;2024-01-27T12:09:56;10.40;76.00
44111;DHT22;29774;52.664;5.074;2024-01-27T12:12:22;10.30;75.30
44111;DHT22;29774;52.664;5.074;2024-01-27T12:14:50;10.30;75.70
44111;DHT22;29774;52.664;5.074;2024-01-27T12:17:16;10.30;75.20
44111;DHT22;29774;52.664;5.074;2024-01-27T12:19:52;10.30;75.60
44111;DHT22;29774;52.664;5.074;2024-01-27T12:24:48;10.20;75.50
44111;DHT22;29774;52.664;5.074;2024-01-27T12:27:14;10.10;75.50
44111;DHT22;29774;52.664;5.074;2024-01-27T12:29:43;10.00;75.80
44111;DHT22;29774;52.664;5.074;2024-01-27T12:32:08;9.90;76.60
44111;DHT22;29774;52.664;5.074;2024-01-27T12:34:40;9.90;76.30
44111;DHT22;29774;52.664;5.074;2024-01-27T12:37:07;9.90;76.30
44111;DHT22;29774;52.664;5.074;2024-01-27T12:39:33;9.90;76.40
44111;DHT22;29774;52.664;5.074;2024-01-27T12:41:59;9.90;76.10
44111;DHT22;29774;52.664;5.074;2024-01-27T12:44:25;9.90;76.50
44111;DHT22;29774;52.664;5.074;2024-01-27T12:46:50;9.90;76.40
44111;DHT22;29774;52.664;5.074;2024-01-27T12:49:16;9.90;76.10
44111;DHT22;29774;52.664;5.074;2024-01-27T12:51:42;10.00;75.90
44111;DHT22;29774;52.664;5.074;2024-01-27T12:54:07;10.00;75.50
44111;DHT22;29774;52.664;5.074;2024-01-27T12:56:33;10.00;75.30
44111;DHT22;29774;52.664;5.074;2024-01-27T12:59:00;9.90;75.50
44111;DHT22;29774;52.664;5.074;2024-01-27T13:01:26;9.80;75.90
44111;DHT22;29774;52.664;5.074;2024-01-27T13:03:52;9.80;76.40
44111;DHT22;29774;52.664;5.074;2024-01-27T13:06:18;9.70;76.60
44111;DHT22;29774;52.664;5.074;2024-01-27T13:08:44;9.80;76.10
44111;DHT22;29774;52.664;5.074;2024-01-27T13:11:10;9.80;76.20
44111;DHT22;29774;52.664;5.074;2024-01-27T13:13:39;9.80;76.00
44111;DHT22;29774;52.664;5.074;2024-01-27T13:16:05;10.00;75.70
44111;DHT22;29774;52.664;5.074;2024-01-27T13:18:31;10.10;76.50
44111;DHT22;29774;52.664;5.074;2024-01-27T13:20:56;10.20;76.40
44111;DHT22;29774;52.664;5.074;2024-01-27T13:23:22;10.10;76.00
44111;DHT22;29774;52.664;5.074;2024-01-27T13:25:48;10.10;76.20
44111;DHT22;29774;52.664;5.074;2024-01-27T13:28:13;10.10;76.20
44111;DHT22;29774;52.664;5.074;2024-01-27T13:30:39;10.20;76.50
44111;DHT22;29774;52.664;5.074;2024-01-27T13:33:05;10.40;76.70
44111;DHT22;29774;52.664;5.074;2024-01-27T13:35:31;10.50;75.90
44111;DHT22;29774;52.664;5.074;2024-01-27T13:37:56;10.50;75.20
44111;DHT22;29774;52.664;5.074;2024-01-27T13:40:22;10.40;75.00
44111;DHT22;29774;52.664;5.074;2024-01-27T13:42:48;10.30;74.90
44111;DHT22;29774;52.664;5.074;2024-01-27T13:45:14;10.20;75.00
44111;DHT22;29774;52.664;5.074;2024-01-27T13:47:40;10.30;74.90
44111;DHT22;29774;52.664;5.074;2024-01-27T13:50:06;10.20;74.90
44111;DHT22;29774;52.664;5.074;2024-01-27T13:52:32;10.20;74.80
44111;DHT22;29774;52.664;5.074;2024-01-27T13:54:58;10.20;74.80
44111;DHT22;29774;52.664;5.074;2024-01-27T13:57:23;10.20;74.80
44111;DHT22;29774;52.664;5.074;2024-01-27T13:59:49;10.20;74.50
44111;DHT22;29774;52.664;5.074;2024-01-27T14:02:15;10.10;74.70
44111;DHT22;29774;52.664;5.074;2024-01-27T14:04:42;10.20;74.90
44111;DHT22;29774;52.664;5.074;2024-01-27T14:07:07;10.10;74.70
44111;DHT22;29774;52.664;5.074;2024-01-27T14:09:35;10.00;74.80
44111;DHT22;29774;52.664;5.074;2024-01-27T14:12:01;10.10;74.90
44111;DHT22;29774;52.664;5.074;2024-01-27T14:14:27;10.10;74.80
44111;DHT22;29774;52.664;5.074;2024-01-27T14:16:53;10.10;74.80
44111;DHT22;29774;52.664;5.074;2024-01-27T14:19:19;10.10;74.80
44111;DHT22;29774;52.664;5.074;2024-01-27T14:21:45;10.10;74.60
44111;DHT22;29774;52.664;5.074;2024-01-27T14:24:11;10.00;74.60
44111;DHT22;29774;52.664;5.074;2024-01-27T14:26:37;10.00;74.70
44111;DHT22;29774;52.664;5.074;2024-01-27T14:29:04;10.00;75.00
44111;DHT22;29774;52.664;5.074;2024-01-27T14:31:30;10.00;74.80
44111;DHT22;29774;52.664;5.074;2024-01-27T14:33:56;10.10;74.80
44111;DHT22;29774;52.664;5.074;2024-01-27T14:36:22;10.10;74.70
44111;DHT22;29774;52.664;5.074;2024-01-27T14:38:49;10.00;74.30
44111;DHT22;29774;52.664;5.074;2024-01-27T14:41:15;10.00;74.10
44111;DHT22;29774;52.664;5.074;2024-01-27T14:43:40;9.80;74.10
44111;DHT22;29774;52.664;5.074;2024-01-27T14:46:07;9.70;74.20
44111;DHT22;29774;52.664;5.074;2024-01-27T14:48:32;9.60;74.50
44111;DHT22;29774;52.664;5.074;2024-01-27T14:50:58;9.60;74.80
44111;DHT22;29774;52.664;5.074;2024-01-27T14:53:28;9.70;75.00
44111;DHT22;29774;52.664;5.074;2024-01-27T14:55:54;9.70;75.10
44111;DHT22;29774;52.664;5.074;2024-01-27T14:58:21;9.60;75.00
44111;DHT22;29774;52.664;5.074;2024-01-27T15:00:47;9.60;75.40
44111;DHT22;29774;52.664;5.074;2024-01-27T15:03:22;9.70;75.70
44111;DHT22;29774;52.664;5.074;2024-01-27T15:05:52;9.70;75.40
44111;DHT22;29774;52.664;5.074;2024-01-27T15:08:19;9.60;75.00
44111;DHT22;29774;52.664;5.074;2024-01-27T15:10:45;9.50;75.40
44111;DHT22;29774;52.664;5.074;2024-01-27T15:13:12;9.20;75.60
44111;DHT22;29774;52.664;5.074;2024-01-27T15:15:39;9.20;76.00
44111;DHT22;29774;52.664;5.074;2024-01-27T15:18:07;9.10;76.00
44111;DHT22;29774;52.664;5.074;2024-01-27T15:20:33;8.80;76.50
44111;DHT22;29774;52.664;5.074;2024-01-27T15:22:58;8.70;76.90
44111;DHT22;29774;52.664;5.074;2024-01-27T15:25:24;8.80;77.10
44111;DHT22;29774;52.664;5.074;2024-01-27T15:27:50;8.50;77.60
44111;DHT22;29774;52.664;5.074;2024-01-27T15:30:17;8.40;78.10
44111;DHT22;29774;52.664;5.074;2024-01-27T15:32:46;8.20;78.30
44111;DHT22;29774;52.664;5.074;2024-01-27T15:35:12;8.10;78.90
44111;DHT22;29774;52.664;5.074;2024-01-27T15:37:38;8.00;79.40
44111;DHT22;29774;52.664;5.074;2024-01-27T15:40:08;8.10;79.60
44111;DHT22;29774;52.664;5.074;2024-01-27T15:42:38;8.40;79.80